sensor_id;sensor_type;location;lat;lon;timestamp;P1;durP1;ratioP1;P2;durP2;ratioP2
7142;SDS011;3613;48.902;9.204;2024-03-06T00:00:19;4.27;;;3.13;;
7142;SDS011;3613;48.902;9.204;2024-03-06T00:02:44;4.93;;;3.37;;
7142;SDS011;3613;48.902;9.204;2024-03-06T00:05:10;4.47;;;3.20;;
7142;SDS011;3613;48.902;9.204;2024-03-06T00:07:37;3.63;;;2.90;;
7142;SDS011;3613;48.902;9.204;2024-03-06T00:10:02;4.07;;;2.90;;
7142;SDS011;3613;48.902;9.204;2024-03-06T00:12:30;4.27;;;3.10;;
7142;SDS011;3613;48.902;9.204;2024-03-06T00:14:55;5.37;;;3.50;;
7142;SDS011;3613;48.902;9.204;2024-03-06T00:17:23;6.33;;;3.67;;
7142;SDS011;3613;48.902;9.204;2024-03-06T00:19:49;4.47;;;2.90;;
7142;SDS011;3613;48.902;9.204;2024-03-06T00:22:14;4.40;;;3.20;;
7142;SDS011;3613;48.902;9.204;2024-03-06T00:24:42;3.70;;;3.00;;
7142;SDS011;3613;48.902;9.204;2024-03-06T00:27:07;4.67;;;3.00;;
7142;SDS011;3613;48.902;9.204;2024-03-06T00:29:33;4.37;;;3.00;;
7142;SDS011;3613;48.902;9.204;2024-03-06T00:32:03;4.37;;;3.30;;
7142;SDS011;3613;48.902;9.204;2024-03-06T00:34:29;4.27;;;3.40;;
7142;SDS011;3613;48.902;9.204;2024-03-06T00:36:57;4.07;;;3.47;;
7142;SDS011;3613;48.902;9.204;2024-03-06T00:39:23;5.17;;;3.50;;
7142;SDS011;3613;48.902;9.204;2024-03-06T00:41:49;5.47;;;3.13;;
7142;SDS011;3613;48.902;9.204;2024-03-06T00:44:18;4.13;;;3.07;;
7142;SDS011;3613;48.902;9.204;2024-03-06T00:46:43;3.97;;;3.10;;
7142;SDS011;3613;48.902;9.204;2024-03-06T00:49:11;4.67;;;3.47;;
7142;SDS011;3613;48.902;9.204;2024-03-06T00:51:41;4.33;;;3.33;;
7142;SDS011;3613;48.902;9.204;2024-03-06T00:54:10;4.57;;;3.03;;
7142;SDS011;3613;48.902;9.204;2024-03-06T00:56:40;5.13;;;2.97;;
7142;SDS011;3613;48.902;9.204;2024-03-06T00:59:07;3.57;;;3.00;;
7142;SDS011;3613;48.902;9.204;2024-03-06T01:01:33;5.07;;;3.20;;
7142;SDS011;3613;48.902;9.204;2024-03-06T01:04:01;5.33;;;3.47;;
7142;SDS011;3613;48.902;9.204;2024-03-06T01:06:31;4.53;;;3.30;;
7142;SDS011;3613;48.902;9.204;2024-03-06T01:09:00;5.70;;;3.00;;
7142;SDS011;3613;48.902;9.204;2024-03-06T01:11:27;4.30;;;3.00;;
7142;SDS011;3613;48.902;9.204;2024-03-06T01:13:53;4.10;;;3.40;;
7142;SDS011;3613;48.902;9.204;2024-03-06T01:16:19;3.90;;;2.90;;
7142;SDS011;3613;48.902;9.204;2024-03-06T01:18:47;5.17;;;3.43;;
7142;SDS011;3613;48.902;9.204;2024-03-06T01:21:13;4.10;;;3.20;;
7142;SDS011;3613;48.902;9.204;2024-03-06T01:23:39;5.20;;;3.30;;
7142;SDS011;3613;48.902;9.204;2024-03-06T01:26:06;4.90;;;3.33;;
7142;SDS011;3613;48.902;9.204;2024-03-06T01:28:32;4.47;;;2.87;;
7142;SDS011;3613;48.902;9.204;2024-03-06T01:31:00;5.20;;;3.30;;
7142;SDS011;3613;48.902;9.204;2024-03-06T01:33:27;4.23;;;3.20;;
7142;SDS011;3613;48.902;9.204;2024-03-06T01:35:55;3.90;;;2.90;;
7142;SDS011;3613;48.902;9.204;2024-03-06T01:38:24;4.33;;;3.33;;
7142;SDS011;3613;48.902;9.204;2024-03-06T01:40:49;3.70;;;2.90;;
7142;SDS011;3613;48.902;9.204;2024-03-06T01:43:22;5.50;;;3.00;;
7142;SDS011;3613;48.902;9.204;2024-03-06T01:45:51;3.97;;;3.20;;
7142;SDS011;3613;48.902;9.204;2024-03-06T01:48:23;5.33;;;3.17;;
7142;SDS011;3613;48.902;9.204;2024-03-06T01:50:55;5.37;;;2.87;;
7142;SDS011;3613;48.902;9.204;2024-03-06T01:53:22;4.37;;;3.53;;
7142;SDS011;3613;48.902;9.204;2024-03-06T01:55:49;4.10;;;2.90;;
7142;SDS011;3613;48.902;9.204;2024-03-06T01:58:16;3.90;;;3.10;;
7142;SDS011;3613;48.902;9.204;2024-03-06T02:00:42;4.37;;;3.07;;
7142;SDS011;3613;48.902;9.204;2024-03-06T02:03:11;4.00;;;3.00;;
7142;SDS011;3613;48.902;9.204;2024-03-06T02:05:37;4.33;;;3.53;;
7142;SDS011;3613;48.902;9.204;2024-03-06T02:08:03;4.17;;;3.40;;
7142;SDS011;3613;48.902;9.204;2024-03-06T02:10:29;4.40;;;3.00;;
7142;SDS011;3613;48.902;9.204;2024-03-06T02:12:55;4.60;;;3.40;;
7142;SDS011;3613;48.902;9.204;2024-03-06T02:15:21;4.77;;;3.40;;
7142;SDS011;3613;48.902;9.204;2024-03-06T02:17:46;4.63;;;3.30;;
7142;SDS011;3613;48.902;9.204;2024-03-06T02:20:12;4.57;;;3.07;;
7142;SDS011;3613;48.902;9.204;2024-03-06T02:22:39;4.60;;;3.07;;
7142;SDS011;3613;48.902;9.204;2024-03-06T02:25:08;3.77;;;3.17;;
7142;SDS011;3613;48.902;9.204;2024-03-06T02:27:34;4.03;;;2.90;;
7142;SDS011;3613;48.902;9.204;2024-03-06T02:30:02;4.77;;;3.27;;
7142;SDS011;3613;48.902;9.204;2024-03-06T02:32:28;4.63;;;3.23;;
7142;SDS011;3613;48.902;9.204;2024-03-06T02:34:54;4.63;;;3.50;;
7142;SDS011;3613;48.902;9.204;2024-03-06T02:37:21;3.83;;;2.83;;
7142;SDS011;3613;48.902;9.204;2024-03-06T02:39:49;3.80;;;3.37;;
7142;SDS011;3613;48.902;9.204;2024-03-06T02:42:15;4.57;;;3.43;;
7142;SDS011;3613;48.902;9.204;2024-03-06T02:44:42;4.57;;;3.57;;
7142;SDS011;3613;48.902;9.204;2024-03-06T02:47:10;4.03;;;3.00;;
7142;SDS011;3613;48.902;9.204;2024-03-06T02:49:37;4.10;;;3.23;;
7142;SDS011;3613;48.902;9.204;2024-03-06T02:52:05;3.93;;;3.03;;
7142;SDS011;3613;48.902;9.204;2024-03-06T02:54:31;3.23;;;2.90;;
7142;SDS011;3613;48.902;9.204;2024-03-06T02:57:02;5.03;;;3.20;;
7142;SDS011;3613;48.902;9.204;2024-03-06T02:59:27;5.30;;;3.27;;
7142;SDS011;3613;48.902;9.204;2024-03-06T03:01:55;4.30;;;3.23;;
7142;SDS011;3613;48.902;9.204;2024-03-06T03:04:21;3.90;;;3.07;;
7142;SDS011;3613;48.902;9.204;2024-03-06T03:06:49;3.93;;;2.87;;
7142;SDS011;3613;48.902;9.204;2024-03-06T03:09:14;4.27;;;3.07;;
7142;SDS011;3613;48.902;9.204;2024-03-06T03:11:41;4.27;;;3.00;;
7142;SDS011;3613;48.902;9.204;2024-03-06T03:14:08;3.90;;;3.00;;
7142;SDS011;3613;48.902;9.204;2024-03-06T03:16:36;3.37;;;2.73;;
7142;SDS011;3613;48.902;9.204;2024-03-06T03:19:02;3.77;;;3.10;;
7142;SDS011;3613;48.902;9.204;2024-03-06T03:21:30;4.37;;;3.13;;
7142;SDS011;3613;48.902;9.204;2024-03-06T03:23:57;4.97;;;3.50;;
7142;SDS011;3613;48.902;9.204;2024-03-06T03:26:25;4.50;;;3.70;;
7142;SDS011;3613;48.902;9.204;2024-03-06T03:28:51;4.50;;;3.57;;
7142;SDS011;3613;48.902;9.204;2024-03-06T03:31:16;5.00;;;3.20;;
7142;SDS011;3613;48.902;9.204;2024-03-06T03:33:42;3.70;;;3.17;;
7142;SDS011;3613;48.902;9.204;2024-03-06T03:36:08;4.13;;;3.37;;
7142;SDS011;3613;48.902;9.204;2024-03-06T03:38:37;4.20;;;3.07;;
7142;SDS011;3613;48.902;9.204;2024-03-06T03:41:12;4.63;;;3.33;;
7142;SDS011;3613;48.902;9.204;2024-03-06T03:43:41;3.43;;;2.80;;
7142;SDS011;3613;48.902;9.204;2024-03-06T03:46:07;3.70;;;3.10;;
7142;SDS011;3613;48.902;9.204;2024-03-06T03:48:33;4.73;;;3.33;;
7142;SDS011;3613;48.902;9.204;2024-03-06T03:51:02;4.10;;;3.30;;
7142;SDS011;3613;48.902;9.204;2024-03-06T03:53:33;4.90;;;3.30;;
7142;SDS011;3613;48.902;9.204;2024-03-06T03:55:59;4.03;;;3.10;;
7142;SDS011;3613;48.902;9.204;2024-03-06T03:58:28;5.10;;;3.13;;
7142;SDS011;3613;48.902;9.204;2024-03-06T04:00:53;5.23;;;3.40;;
7142;SDS011;3613;48.902;9.204;2024-03-06T04:03:20;4.23;;;3.30;;
7142;SDS011;3613;48.902;9.204;2024-03-06T04:05:47;4.53;;;3.10;;
7142;SDS011;3613;48.902;9.204;2024-03-06T04:08:15;4.67;;;3.30;;
7142;SDS011;3613;48.902;9.204;2024-03-06T04:10:42;3.53;;;3.10;;
7142;SDS011;3613;48.902;9.204;2024-03-06T04:13:12;4.90;;;3.53;;
7142;SDS011;3613;48.902;9.204;2024-03-06T04:15:40;4.27;;;3.27;;
7142;SDS011;3613;48.902;9.204;2024-03-06T04:18:08;3.60;;;2.80;;
7142;SDS011;3613;48.902;9.204;2024-03-06T04:20:33;3.73;;;2.97;;
7142;SDS011;3613;48.902;9.204;2024-03-06T04:23:04;3.70;;;3.20;;
7142;SDS011;3613;48.902;9.204;2024-03-06T04:25:29;4.23;;;3.23;;
7142;SDS011;3613;48.902;9.204;2024-03-06T04:27:55;3.50;;;3.10;;
7142;SDS011;3613;48.902;9.204;2024-03-06T04:30:23;3.80;;;2.70;;
7142;SDS011;3613;48.902;9.204;2024-03-06T04:32:49;4.97;;;3.27;;
7142;SDS011;3613;48.902;9.204;2024-03-06T04:35:15;4.30;;;2.90;;
7142;SDS011;3613;48.902;9.204;2024-03-06T04:37:43;3.20;;;2.90;;
7142;SDS011;3613;48.902;9.204;2024-03-06T04:40:13;4.40;;;3.03;;
7142;SDS011;3613;48.902;9.204;2024-03-06T04:42:45;5.10;;;3.57;;
7142;SDS011;3613;48.902;9.204;2024-03-06T04:45:13;3.90;;;3.10;;
7142;SDS011;3613;48.902;9.204;2024-03-06T04:47:42;3.83;;;2.93;;
7142;SDS011;3613;48.902;9.204;2024-03-06T04:50:11;3.97;;;3.03;;
7142;SDS011;3613;48.902;9.204;2024-03-06T04:52:39;4.13;;;3.37;;
7142;SDS011;3613;48.902;9.204;2024-03-06T04:55:06;5.90;;;3.40;;
7142;SDS011;3613;48.902;9.204;2024-03-06T04:57:32;4.13;;;3.00;;
7142;SDS011;3613;48.902;9.204;2024-03-06T04:59:59;4.23;;;3.13;;
7142;SDS011;3613;48.902;9.204;2024-03-06T05:02:25;5.20;;;3.30;;
7142;SDS011;3613;48.902;9.204;2024-03-06T05:04:51;4.77;;;2.87;;
7142;SDS011;3613;48.902;9.204;2024-03-06T05:07:19;3.37;;;3.07;;
7142;SDS011;3613;48.902;9.204;2024-03-06T05:09:49;4.10;;;3.30;;
7142;SDS011;3613;48.902;9.204;2024-03-06T05:12:14;5.10;;;2.83;;
7142;SDS011;3613;48.902;9.204;2024-03-06T05:14:40;5.00;;;3.57;;
7142;SDS011;3613;48.902;9.204;2024-03-06T05:17:05;4.33;;;3.27;;
7142;SDS011;3613;48.902;9.204;2024-03-06T05:19:31;4.70;;;3.40;;
7142;SDS011;3613;48.902;9.204;2024-03-06T05:21:59;4.43;;;3.27;;
7142;SDS011;3613;48.902;9.204;2024-03-06T05:24:25;4.13;;;3.10;;
7142;SDS011;3613;48.902;9.204;2024-03-06T05:26:51;4.17;;;3.30;;
7142;SDS011;3613;48.902;9.204;2024-03-06T05:29:16;4.60;;;3.27;;
7142;SDS011;3613;48.902;9.204;2024-03-06T05:31:44;3.83;;;2.90;;
7142;SDS011;3613;48.902;9.204;2024-03-06T05:34:12;3.63;;;2.83;;
7142;SDS011;3613;48.902;9.204;2024-03-06T05:36:38;4.17;;;3.00;;
7142;SDS011;3613;48.902;9.204;2024-03-06T05:39:04;4.20;;;3.17;;
7142;SDS011;3613;48.902;9.204;2024-03-06T05:41:32;4.17;;;3.30;;
7142;SDS011;3613;48.902;9.204;2024-03-06T05:44:00;3.40;;;3.00;;
7142;SDS011;3613;48.902;9.204;2024-03-06T05:46:26;3.67;;;2.87;;
7142;SDS011;3613;48.902;9.204;2024-03-06T05:48:51;3.67;;;2.70;;
7142;SDS011;3613;48.902;9.204;2024-03-06T05:51:17;5.30;;;3.27;;
7142;SDS011;3613;48.902;9.204;2024-03-06T05:53:43;3.30;;;3.00;;
7142;SDS011;3613;48.902;9.204;2024-03-06T05:56:13;3.47;;;2.97;;
7142;SDS011;3613;48.902;9.204;2024-03-06T05:58:39;4.47;;;3.10;;
7142;SDS011;3613;48.902;9.204;2024-03-06T06:01:05;4.73;;;3.30;;
7142;SDS011;3613;48.902;9.204;2024-03-06T06:03:30;4.40;;;2.80;;
7142;SDS011;3613;48.902;9.204;2024-03-06T06:05:58;4.23;;;3.07;;
7142;SDS011;3613;48.902;9.204;2024-03-06T06:08:24;3.87;;;2.90;;
7142;SDS011;3613;48.902;9.204;2024-03-06T06:10:52;3.23;;;2.67;;
7142;SDS011;3613;48.902;9.204;2024-03-06T06:13:18;4.47;;;2.97;;
7142;SDS011;3613;48.902;9.204;2024-03-06T06:15:46;4.20;;;3.27;;
7142;SDS011;3613;48.902;9.204;2024-03-06T06:18:14;3.03;;;2.73;;
7142;SDS011;3613;48.902;9.204;2024-03-06T06:20:41;3.80;;;2.83;;
7142;SDS011;3613;48.902;9.204;2024-03-06T06:23:07;3.27;;;2.97;;
7142;SDS011;3613;48.902;9.204;2024-03-06T06:25:33;4.93;;;3.43;;
7142;SDS011;3613;48.902;9.204;2024-03-06T06:28:00;3.87;;;2.80;;
7142;SDS011;3613;48.902;9.204;2024-03-06T06:30:25;3.53;;;3.00;;
7142;SDS011;3613;48.902;9.204;2024-03-06T06:32:51;4.63;;;2.90;;
7142;SDS011;3613;48.902;9.204;2024-03-06T06:35:17;5.00;;;3.17;;
7142;SDS011;3613;48.902;9.204;2024-03-06T06:37:42;4.17;;;3.03;;
7142;SDS011;3613;48.902;9.204;2024-03-06T06:40:11;4.40;;;3.23;;
7142;SDS011;3613;48.902;9.204;2024-03-06T06:42:45;4.70;;;3.00;;
7142;SDS011;3613;48.902;9.204;2024-03-06T06:45:14;4.13;;;3.20;;
7142;SDS011;3613;48.902;9.204;2024-03-06T06:47:43;4.33;;;3.00;;
7142;SDS011;3613;48.902;9.204;2024-03-06T06:50:11;3.77;;;2.90;;
7142;SDS011;3613;48.902;9.204;2024-03-06T06:52:37;3.80;;;2.77;;
7142;SDS011;3613;48.902;9.204;2024-03-06T06:55:06;3.97;;;3.00;;
7142;SDS011;3613;48.902;9.204;2024-03-06T06:57:36;4.47;;;2.90;;
7142;SDS011;3613;48.902;9.204;2024-03-06T07:00:02;4.43;;;3.57;;
7142;SDS011;3613;48.902;9.204;2024-03-06T07:02:35;4.60;;;3.10;;
7142;SDS011;3613;48.902;9.204;2024-03-06T07:05:05;2.97;;;2.63;;
7142;SDS011;3613;48.902;9.204;2024-03-06T07:07:32;3.60;;;3.00;;
7142;SDS011;3613;48.902;9.204;2024-03-06T07:10:00;3.83;;;2.80;;
7142;SDS011;3613;48.902;9.204;2024-03-06T07:12:36;4.33;;;2.90;;
7142;SDS011;3613;48.902;9.204;2024-03-06T07:15:04;3.33;;;2.80;;
7142;SDS011;3613;48.902;9.204;2024-03-06T07:17:31;4.67;;;3.10;;
7142;SDS011;3613;48.902;9.204;2024-03-06T07:19:57;3.93;;;3.10;;
7142;SDS011;3613;48.902;9.204;2024-03-06T07:22:22;3.37;;;2.93;;
7142;SDS011;3613;48.902;9.204;2024-03-06T07:24:48;3.57;;;2.60;;
7142;SDS011;3613;48.902;9.204;2024-03-06T07:27:14;5.03;;;3.00;;
7142;SDS011;3613;48.902;9.204;2024-03-06T07:29:40;3.63;;;2.83;;
7142;SDS011;3613;48.902;9.204;2024-03-06T07:32:07;3.43;;;2.80;;
7142;SDS011;3613;48.902;9.204;2024-03-06T07:34:33;3.93;;;3.07;;
7142;SDS011;3613;48.902;9.204;2024-03-06T07:37:03;3.70;;;3.20;;
7142;SDS011;3613;48.902;9.204;2024-03-06T07:39:29;4.80;;;3.20;;
7142;SDS011;3613;48.902;9.204;2024-03-06T07:41:56;4.10;;;2.80;;
7142;SDS011;3613;48.902;9.204;2024-03-06T07:44:24;4.20;;;3.10;;
7142;SDS011;3613;48.902;9.204;2024-03-06T07:46:52;4.43;;;2.97;;
7142;SDS011;3613;48.902;9.204;2024-03-06T07:49:19;4.30;;;3.33;;
7142;SDS011;3613;48.902;9.204;2024-03-06T07:51:46;4.60;;;3.30;;
7142;SDS011;3613;48.902;9.204;2024-03-06T07:54:12;3.20;;;2.80;;
7142;SDS011;3613;48.902;9.204;2024-03-06T07:56:38;4.33;;;2.80;;
7142;SDS011;3613;48.902;9.204;2024-03-06T07:59:04;3.93;;;2.53;;
7142;SDS011;3613;48.902;9.204;2024-03-06T08:01:32;4.53;;;3.20;;
7142;SDS011;3613;48.902;9.204;2024-03-06T08:03:58;3.80;;;2.67;;
7142;SDS011;3613;48.902;9.204;2024-03-06T08:06:24;4.70;;;3.37;;
7142;SDS011;3613;48.902;9.204;2024-03-06T08:08:50;3.20;;;2.57;;
7142;SDS011;3613;48.902;9.204;2024-03-06T08:11:17;4.57;;;2.97;;
7142;SDS011;3613;48.902;9.204;2024-03-06T08:13:43;3.23;;;2.60;;
7142;SDS011;3613;48.902;9.204;2024-03-06T08:16:09;3.20;;;2.67;;
7142;SDS011;3613;48.902;9.204;2024-03-06T08:18:36;3.93;;;2.70;;
7142;SDS011;3613;48.902;9.204;2024-03-06T08:21:04;3.43;;;2.87;;
7142;SDS011;3613;48.902;9.204;2024-03-06T08:23:31;4.00;;;2.50;;
7142;SDS011;3613;48.902;9.204;2024-03-06T08:25:57;3.90;;;2.83;;
7142;SDS011;3613;48.902;9.204;2024-03-06T08:28:22;4.17;;;3.07;;
7142;SDS011;3613;48.902;9.204;2024-03-06T08:30:50;5.77;;;3.30;;
7142;SDS011;3613;48.902;9.204;2024-03-06T08:33:17;3.73;;;2.63;;
7142;SDS011;3613;48.902;9.204;2024-03-06T08:35:47;13.40;;;4.77;;
7142;SDS011;3613;48.902;9.204;2024-03-06T08:38:13;4.87;;;2.67;;
7142;SDS011;3613;48.902;9.204;2024-03-06T08:40:42;3.87;;;2.40;;
7142;SDS011;3613;48.902;9.204;2024-03-06T08:43:10;3.77;;;2.50;;
7142;SDS011;3613;48.902;9.204;2024-03-06T08:45:37;3.70;;;2.43;;
7142;SDS011;3613;48.902;9.204;2024-03-06T08:48:03;6.10;;;2.70;;
7142;SDS011;3613;48.902;9.204;2024-03-06T08:50:30;6.00;;;2.70;;
7142;SDS011;3613;48.902;9.204;2024-03-06T08:52:58;3.60;;;2.60;;
7142;SDS011;3613;48.902;9.204;2024-03-06T08:55:24;3.03;;;2.60;;
7142;SDS011;3613;48.902;9.204;2024-03-06T08:57:49;4.30;;;2.87;;
7142;SDS011;3613;48.902;9.204;2024-03-06T09:00:17;3.50;;;2.63;;
7142;SDS011;3613;48.902;9.204;2024-03-06T09:02:43;3.90;;;2.47;;
7142;SDS011;3613;48.902;9.204;2024-03-06T09:05:09;3.50;;;2.60;;
7142;SDS011;3613;48.902;9.204;2024-03-06T09:07:38;2.30;;;2.10;;
7142;SDS011;3613;48.902;9.204;2024-03-06T09:10:06;3.47;;;2.70;;
7142;SDS011;3613;48.902;9.204;2024-03-06T09:12:32;3.80;;;2.50;;
7142;SDS011;3613;48.902;9.204;2024-03-06T09:14:57;4.40;;;2.20;;
7142;SDS011;3613;48.902;9.204;2024-03-06T09:17:25;4.27;;;2.80;;
7142;SDS011;3613;48.902;9.204;2024-03-06T09:19:51;3.70;;;2.40;;
7142;SDS011;3613;48.902;9.204;2024-03-06T09:22:16;3.77;;;2.60;;
7142;SDS011;3613;48.902;9.204;2024-03-06T09:24:42;2.57;;;2.30;;
7142;SDS011;3613;48.902;9.204;2024-03-06T09:27:08;5.50;;;2.67;;
7142;SDS011;3613;48.902;9.204;2024-03-06T09:29:33;2.97;;;2.37;;
7142;SDS011;3613;48.902;9.204;2024-03-06T09:31:59;3.13;;;2.50;;
7142;SDS011;3613;48.902;9.204;2024-03-06T09:34:29;4.77;;;2.83;;
7142;SDS011;3613;48.902;9.204;2024-03-06T09:36:57;4.27;;;2.43;;
7142;SDS011;3613;48.902;9.204;2024-03-06T09:39:23;4.20;;;2.63;;
7142;SDS011;3613;48.902;9.204;2024-03-06T09:41:51;4.07;;;2.50;;
7142;SDS011;3613;48.902;9.204;2024-03-06T09:44:20;3.87;;;2.13;;
7142;SDS011;3613;48.902;9.204;2024-03-06T09:46:47;3.47;;;2.20;;
7142;SDS011;3613;48.902;9.204;2024-03-06T09:49:15;3.43;;;2.20;;
7142;SDS011;3613;48.902;9.204;2024-03-06T09:51:49;3.43;;;2.40;;
7142;SDS011;3613;48.902;9.204;2024-03-06T09:54:15;2.67;;;2.30;;
7142;SDS011;3613;48.902;9.204;2024-03-06T09:56:44;2.80;;;2.30;;
7142;SDS011;3613;48.902;9.204;2024-03-06T09:59:13;5.90;;;2.50;;
7142;SDS011;3613;48.902;9.204;2024-03-06T10:02:03;2.93;;;2.17;;
7142;SDS011;3613;48.902;9.204;2024-03-06T10:04:35;3.10;;;2.23;;
7142;SDS011;3613;48.902;9.204;2024-03-06T10:07:03;2.87;;;2.27;;
7142;SDS011;3613;48.902;9.204;2024-03-06T10:09:29;2.43;;;2.03;;
7142;SDS011;3613;48.902;9.204;2024-03-06T10:11:58;3.10;;;2.33;;
7142;SDS011;3613;48.902;9.204;2024-03-06T10:14:23;2.43;;;1.90;;
7142;SDS011;3613;48.902;9.204;2024-03-06T10:16:54;4.33;;;2.83;;
7142;SDS011;3613;48.902;9.204;2024-03-06T10:19:24;4.13;;;2.50;;
7142;SDS011;3613;48.902;9.204;2024-03-06T10:21:54;3.30;;;2.50;;
7142;SDS011;3613;48.902;9.204;2024-03-06T10:24:22;2.70;;;2.30;;
7142;SDS011;3613;48.902;9.204;2024-03-06T10:26:51;2.83;;;2.30;;
7142;SDS011;3613;48.902;9.204;2024-03-06T10:29:19;3.10;;;2.50;;
7142;SDS011;3613;48.902;9.204;2024-03-06T10:34:22;2.70;;;2.23;;
7142;SDS011;3613;48.902;9.204;2024-03-06T10:36:55;3.90;;;2.50;;
7142;SDS011;3613;48.902;9.204;2024-03-06T10:39:22;2.70;;;2.10;;
7142;SDS011;3613;48.902;9.204;2024-03-06T10:41:51;3.10;;;2.40;;
7142;SDS011;3613;48.902;9.204;2024-03-06T10:44:26;4.03;;;2.23;;
7142;SDS011;3613;48.902;9.204;2024-03-06T10:49:24;3.17;;;2.33;;
7142;SDS011;3613;48.902;9.204;2024-03-06T10:51:52;4.63;;;2.53;;
7142;SDS011;3613;48.902;9.204;2024-03-06T10:54:31;3.37;;;2.30;;
7142;SDS011;3613;48.902;9.204;2024-03-06T10:57:06;5.90;;;2.47;;
7142;SDS011;3613;48.902;9.204;2024-03-06T10:59:34;3.70;;;2.20;;
7142;SDS011;3613;48.902;9.204;2024-03-06T11:02:02;4.27;;;2.30;;
7142;SDS011;3613;48.902;9.204;2024-03-06T11:04:35;3.10;;;2.63;;
7142;SDS011;3613;48.902;9.204;2024-03-06T11:07:05;5.13;;;2.33;;
7142;SDS011;3613;48.902;9.204;2024-03-06T11:09:34;9.50;;;3.20;;
7142;SDS011;3613;48.902;9.204;2024-03-06T11:12:03;6.50;;;2.57;;
7142;SDS011;3613;48.902;9.204;2024-03-06T11:14:35;4.13;;;2.53;;
7142;SDS011;3613;48.902;9.204;2024-03-06T11:17:06;4.20;;;2.67;;
7142;SDS011;3613;48.902;9.204;2024-03-06T11:30:45;5.93;;;2.30;;
7142;SDS011;3613;48.902;9.204;2024-03-06T11:33:15;7.20;;;2.80;;
7142;SDS011;3613;48.902;9.204;2024-03-06T11:35:41;5.17;;;2.97;;
7142;SDS011;3613;48.902;9.204;2024-03-06T11:38:16;5.43;;;2.57;;
7142;SDS011;3613;48.902;9.204;2024-03-06T11:40:43;6.07;;;2.90;;
7142;SDS011;3613;48.902;9.204;2024-03-06T11:43:25;8.23;;;3.00;;
7142;SDS011;3613;48.902;9.204;2024-03-06T11:45:54;6.50;;;2.63;;
7142;SDS011;3613;48.902;9.204;2024-03-06T11:48:33;6.90;;;3.17;;
7142;SDS011;3613;48.902;9.204;2024-03-06T11:50:59;7.47;;;2.77;;
7142;SDS011;3613;48.902;9.204;2024-03-06T11:53:28;5.80;;;2.63;;
7142;SDS011;3613;48.902;9.204;2024-03-06T11:55:55;6.30;;;2.70;;
7142;SDS011;3613;48.902;9.204;2024-03-06T11:58:21;7.17;;;3.37;;
7142;SDS011;3613;48.902;9.204;2024-03-06T12:00:47;8.23;;;3.23;;
7142;SDS011;3613;48.902;9.204;2024-03-06T12:03:15;9.97;;;3.50;;
7142;SDS011;3613;48.902;9.204;2024-03-06T12:05:42;7.50;;;2.90;;
7142;SDS011;3613;48.902;9.204;2024-03-06T12:08:09;6.33;;;3.10;;
7142;SDS011;3613;48.902;9.204;2024-03-06T12:10:37;7.70;;;3.40;;
7142;SDS011;3613;48.902;9.204;2024-03-06T12:13:07;10.67;;;3.73;;
7142;SDS011;3613;48.902;9.204;2024-03-06T12:15:33;12.23;;;3.40;;
7142;SDS011;3613;48.902;9.204;2024-03-06T12:17:58;10.50;;;3.47;;
7142;SDS011;3613;48.902;9.204;2024-03-06T12:20:24;10.43;;;3.13;;
7142;SDS011;3613;48.902;9.204;2024-03-06T12:22:54;8.37;;;3.30;;
7142;SDS011;3613;48.902;9.204;2024-03-06T12:25:23;9.57;;;4.03;;
7142;SDS011;3613;48.902;9.204;2024-03-06T12:27:53;12.57;;;3.93;;
7142;SDS011;3613;48.902;9.204;2024-03-06T12:30:20;10.80;;;3.40;;
7142;SDS011;3613;48.902;9.204;2024-03-06T12:32:56;8.53;;;3.23;;
7142;SDS011;3613;48.902;9.204;2024-03-06T12:35:26;6.90;;;3.33;;
7142;SDS011;3613;48.902;9.204;2024-03-06T12:37:52;9.90;;;3.53;;
7142;SDS011;3613;48.902;9.204;2024-03-06T12:40:18;7.30;;;3.00;;
7142;SDS011;3613;48.902;9.204;2024-03-06T12:42:44;8.83;;;3.60;;
7142;SDS011;3613;48.902;9.204;2024-03-06T12:45:14;7.97;;;3.30;;
7142;SDS011;3613;48.902;9.204;2024-03-06T12:47:40;6.03;;;3.20;;
7142;SDS011;3613;48.902;9.204;2024-03-06T12:50:09;6.57;;;3.50;;
7142;SDS011;3613;48.902;9.204;2024-03-06T12:52:36;7.47;;;3.10;;
7142;SDS011;3613;48.902;9.204;2024-03-06T12:55:02;7.30;;;3.07;;
7142;SDS011;3613;48.902;9.204;2024-03-06T12:57:30;11.77;;;3.20;;
7142;SDS011;3613;48.902;9.204;2024-03-06T12:59:58;6.40;;;3.13;;
7142;SDS011;3613;48.902;9.204;2024-03-06T13:02:26;8.60;;;3.30;;
7142;SDS011;3613;48.902;9.204;2024-03-06T13:04:54;10.27;;;3.47;;
7142;SDS011;3613;48.902;9.204;2024-03-06T13:07:22;7.47;;;2.70;;
7142;SDS011;3613;48.902;9.204;2024-03-06T13:09:52;7.23;;;3.30;;
7142;SDS011;3613;48.902;9.204;2024-03-06T13:12:20;11.37;;;3.23;;
7142;SDS011;3613;48.902;9.204;2024-03-06T13:14:45;4.53;;;2.90;;
7142;SDS011;3613;48.902;9.204;2024-03-06T13:17:13;9.33;;;3.13;;
7142;SDS011;3613;48.902;9.204;2024-03-06T13:19:39;8.30;;;2.93;;
7142;SDS011;3613;48.902;9.204;2024-03-06T13:22:04;8.30;;;3.00;;
7142;SDS011;3613;48.902;9.204;2024-03-06T13:24:32;7.03;;;3.33;;
7142;SDS011;3613;48.902;9.204;2024-03-06T13:26:58;9.10;;;3.17;;
7142;SDS011;3613;48.902;9.204;2024-03-06T13:29:26;8.27;;;2.90;;
7142;SDS011;3613;48.902;9.204;2024-03-06T13:31:54;5.93;;;3.20;;
7142;SDS011;3613;48.902;9.204;2024-03-06T13:34:20;6.37;;;3.27;;
7142;SDS011;3613;48.902;9.204;2024-03-06T13:36:45;4.80;;;2.40;;
7142;SDS011;3613;48.902;9.204;2024-03-06T13:39:13;8.53;;;2.73;;
7142;SDS011;3613;48.902;9.204;2024-03-06T13:41:39;8.87;;;3.77;;
7142;SDS011;3613;48.902;9.204;2024-03-06T13:44:05;7.30;;;2.97;;
7142;SDS011;3613;48.902;9.204;2024-03-06T13:46:32;7.80;;;3.30;;
7142;SDS011;3613;48.902;9.204;2024-03-06T13:48:58;6.10;;;3.60;;
7142;SDS011;3613;48.902;9.204;2024-03-06T13:51:25;8.53;;;3.07;;
7142;SDS011;3613;48.902;9.204;2024-03-06T13:53:51;6.53;;;3.20;;
7142;SDS011;3613;48.902;9.204;2024-03-06T13:56:16;7.70;;;2.63;;
7142;SDS011;3613;48.902;9.204;2024-03-06T13:58:43;6.73;;;2.90;;
7142;SDS011;3613;48.902;9.204;2024-03-06T14:01:11;5.47;;;2.87;;
7142;SDS011;3613;48.902;9.204;2024-03-06T14:03:39;6.83;;;3.13;;
7142;SDS011;3613;48.902;9.204;2024-03-06T14:06:05;6.37;;;2.67;;
7142;SDS011;3613;48.902;9.204;2024-03-06T14:08:34;6.13;;;2.83;;
7142;SDS011;3613;48.902;9.204;2024-03-06T14:11:03;5.47;;;2.77;;
7142;SDS011;3613;48.902;9.204;2024-03-06T14:13:31;6.23;;;2.87;;
7142;SDS011;3613;48.902;9.204;2024-03-06T14:15:57;5.63;;;2.80;;
7142;SDS011;3613;48.902;9.204;2024-03-06T14:18:25;6.40;;;2.80;;
7142;SDS011;3613;48.902;9.204;2024-03-06T14:20:51;5.40;;;3.03;;
7142;SDS011;3613;48.902;9.204;2024-03-06T14:23:16;4.70;;;2.80;;
7142;SDS011;3613;48.902;9.204;2024-03-06T14:25:42;4.90;;;2.30;;
7142;SDS011;3613;48.902;9.204;2024-03-06T14:28:08;5.70;;;2.77;;
7142;SDS011;3613;48.902;9.204;2024-03-06T14:30:38;5.43;;;2.57;;
7142;SDS011;3613;48.902;9.204;2024-03-06T14:33:03;5.47;;;2.87;;
7142;SDS011;3613;48.902;9.204;2024-03-06T14:35:29;3.93;;;2.50;;
7142;SDS011;3613;48.902;9.204;2024-03-06T14:37:57;5.03;;;2.50;;
7142;SDS011;3613;48.902;9.204;2024-03-06T14:40:25;4.73;;;2.73;;
7142;SDS011;3613;48.902;9.204;2024-03-06T14:42:52;4.33;;;2.73;;
7142;SDS011;3613;48.902;9.204;2024-03-06T14:45:18;3.50;;;2.43;;
7142;SDS011;3613;48.902;9.204;2024-03-06T14:47:46;5.77;;;3.10;;
7142;SDS011;3613;48.902;9.204;2024-03-06T14:50:12;3.27;;;2.40;;
7142;SDS011;3613;48.902;9.204;2024-03-06T14:52:39;4.93;;;2.60;;
7142;SDS011;3613;48.902;9.204;2024-03-06T14:55:05;4.67;;;2.97;;
7142;SDS011;3613;48.902;9.204;2024-03-06T14:57:33;7.87;;;2.80;;
7142;SDS011;3613;48.902;9.204;2024-03-06T15:00:01;5.00;;;2.80;;
7142;SDS011;3613;48.902;9.204;2024-03-06T15:02:31;5.27;;;3.07;;
7142;SDS011;3613;48.902;9.204;2024-03-06T15:04:57;3.43;;;2.70;;
7142;SDS011;3613;48.902;9.204;2024-03-06T15:07:23;4.00;;;2.43;;
7142;SDS011;3613;48.902;9.204;2024-03-06T15:09:48;3.60;;;2.43;;
7142;SDS011;3613;48.902;9.204;2024-03-06T15:12:15;3.53;;;2.30;;
7142;SDS011;3613;48.902;9.204;2024-03-06T15:14:40;3.33;;;2.30;;
7142;SDS011;3613;48.902;9.204;2024-03-06T15:17:06;3.67;;;2.40;;
7142;SDS011;3613;48.902;9.204;2024-03-06T15:19:32;4.30;;;2.47;;
7142;SDS011;3613;48.902;9.204;2024-03-06T15:21:57;5.63;;;3.07;;
7142;SDS011;3613;48.902;9.204;2024-03-06T15:24:28;5.73;;;3.00;;
7142;SDS011;3613;48.902;9.204;2024-03-06T15:26:54;3.03;;;2.10;;
7142;SDS011;3613;48.902;9.204;2024-03-06T15:29:20;5.10;;;3.20;;
7142;SDS011;3613;48.902;9.204;2024-03-06T15:31:46;4.47;;;2.43;;